Aviation Digital Data Service (ADDS)

Output produced by METARs form (0629 UTC 19 February 2019)
found at http://www.aviationweather.gov/metar/data/
 
Forecast for: LFTW (NIMES/GARONS (NA, FR)
Text: TAF LFTW 190200Z 1903/2003 VRB03KT 9999 BKN030
Forecast period: 0300 to 1600 UTC 19 February 2019
Forecast type: FROM: standard forecast or significant change
Winds: variable direction winds at 3 MPH (3 knots; 1.5 m/s)
Visibility: 6 or more miles 10+ km)
Ceiling: 3000 feet AGL
Clouds: broken clouds at 3000 feet AGL
Weather: no significant weather forecast for this period
Text: BECMG 1916/1918 SCT020
Forecast period: 1600 UTC 19 February 2019 to 0300 UTC 20 February 2019
Forecast type: BECOMING: Conditions expected to become as follows by 1800 UTC 19 February 2019
Winds: variable direction winds at 3 MPH (3 knots; 1.5 m/s)
Visibility: 6 or more miles 10+ km)
Ceiling: at least 12,000 feet AGL
Clouds: scattered clouds at 2000 feet AGL
Weather: no significant weather forecast for this period